createdAt,value
2017-12-19T00:00:52.419Z,12.20
2017-12-19T00:03:20.301Z,14.03
2017-12-19T00:05:48.378Z,12.40
2017-12-19T00:08:15.866Z,14.87
2017-12-19T00:10:43.339Z,14.47
2017-12-19T00:13:10.935Z,13.93
2017-12-19T00:15:38.403Z,13.97
2017-12-19T00:18:05.972Z,13.40
2017-12-19T00:20:33.890Z,14.97
2017-12-19T00:23:01.396Z,16.20
2017-12-19T00:25:28.889Z,14.23
2017-12-19T00:27:57.681Z,14.30
2017-12-19T00:30:25.718Z,14.27
2017-12-19T00:32:54.160Z,14.80
2017-12-19T00:35:21.571Z,13.93
2017-12-19T00:37:49.047Z,13.90
2017-12-19T00:40:16.898Z,14.27
2017-12-19T00:42:44.374Z,14.90
2017-12-19T00:45:12.283Z,15.67
2017-12-19T00:47:39.792Z,13.87
2017-12-19T00:50:07.353Z,18.13
2017-12-19T00:52:34.845Z,15.27
2017-12-19T00:55:02.884Z,15.83
2017-12-19T00:57:30.402Z,16.20
2017-12-19T00:59:57.974Z,15.47
2017-12-19T01:02:25.395Z,14.87
2017-12-19T01:04:53.050Z,15.97
2017-12-19T01:07:20.921Z,13.27
2017-12-19T01:09:48.401Z,15.27
2017-12-19T01:12:16.319Z,15.63
2017-12-19T01:14:43.825Z,15.77
2017-12-19T01:17:11.342Z,14.97
2017-12-19T01:19:38.812Z,15.80
2017-12-19T01:22:06.232Z,14.47
2017-12-19T01:24:34.164Z,14.60
2017-12-19T01:27:01.592Z,14.93
2017-12-19T01:29:29.016Z,15.07
2017-12-19T01:31:56.936Z,15.50
2017-12-19T01:34:24.392Z,15.13
2017-12-19T01:36:51.795Z,13.40
2017-12-19T01:39:19.310Z,15.17
2017-12-19T01:41:46.752Z,14.93
2017-12-19T01:44:15.016Z,13.93
2017-12-19T01:46:42.841Z,14.93
2017-12-19T01:49:10.290Z,15.10
2017-12-19T01:51:37.767Z,15.70
2017-12-19T01:54:05.255Z,13.67
2017-12-19T01:56:32.707Z,15.70
2017-12-19T01:59:00.151Z,15.97
2017-12-19T02:01:27.603Z,16.57
2017-12-19T02:03:55.068Z,14.60
2017-12-19T02:06:22.505Z,15.20
2017-12-19T02:08:49.948Z,16.13
2017-12-19T02:11:17.746Z,15.50
2017-12-19T02:13:45.212Z,15.13
2017-12-19T02:16:13.369Z,15.00
2017-12-19T02:18:40.793Z,14.90
2017-12-19T02:21:08.319Z,17.00
2017-12-19T02:23:35.782Z,14.63
2017-12-19T02:26:03.251Z,15.60
2017-12-19T02:28:30.695Z,14.50
2017-12-19T02:30:58.163Z,14.20
2017-12-19T02:33:25.635Z,15.80
2017-12-19T02:35:53.084Z,15.73
2017-12-19T02:38:20.508Z,14.67
2017-12-19T02:40:48.345Z,15.53
2017-12-19T02:43:21.635Z,15.70
2017-12-19T02:45:51.134Z,16.53
2017-12-19T02:48:18.578Z,15.83
2017-12-19T02:50:46.032Z,15.10
2017-12-19T02:53:13.471Z,16.37
2017-12-19T02:55:41.319Z,15.37
2017-12-19T02:58:08.734Z,16.43
2017-12-19T03:00:36.196Z,14.70
2017-12-19T03:03:03.675Z,15.93
2017-12-19T03:05:31.115Z,16.10
2017-12-19T03:07:58.543Z,14.53
2017-12-19T03:10:26.442Z,15.30
2017-12-19T03:12:55.759Z,15.90
2017-12-19T03:15:23.210Z,15.60
2017-12-19T03:17:50.686Z,16.33
2017-12-19T03:20:18.230Z,16.37
2017-12-19T03:22:45.664Z,15.27
2017-12-19T03:25:13.503Z,15.00
2017-12-19T03:27:40.940Z,14.17
2017-12-19T03:30:08.412Z,16.00
2017-12-19T03:32:37.904Z,13.83
2017-12-19T03:35:05.393Z,15.93
2017-12-19T03:37:33.126Z,14.30
2017-12-19T03:40:00.690Z,16.50
2017-12-19T03:42:28.572Z,16.17
2017-12-19T03:44:55.977Z,15.10
2017-12-19T03:47:23.827Z,15.43
2017-12-19T03:49:51.300Z,14.83
2017-12-19T03:52:18.827Z,16.37
2017-12-19T03:54:46.255Z,14.90
2017-12-19T03:57:13.762Z,16.00
2017-12-19T03:59:41.413Z,15.17
2017-12-19T04:02:11.323Z,15.00
2017-12-19T04:04:39.159Z,14.87
2017-12-19T04:07:07.022Z,16.13
2017-12-19T04:09:34.488Z,16.47
2017-12-19T04:12:02.339Z,14.67
2017-12-19T04:14:29.772Z,16.10
2017-12-19T04:16:57.220Z,15.47
2017-12-19T04:19:24.657Z,14.67
2017-12-19T04:21:52.511Z,14.90
2017-12-19T04:24:20.427Z,14.77
2017-12-19T04:26:47.860Z,15.27
2017-12-19T04:29:15.688Z,13.57
2017-12-19T04:31:43.141Z,15.27
2017-12-19T04:34:10.754Z,15.97
2017-12-19T04:36:38.558Z,14.97
2017-12-19T04:39:06.177Z,15.03
2017-12-19T04:41:33.632Z,14.70
2017-12-19T04:44:01.209Z,13.47
2017-12-19T04:46:29.622Z,16.10
2017-12-19T04:48:58.001Z,15.50
2017-12-19T04:51:25.459Z,13.47
2017-12-19T04:53:53.382Z,13.90
2017-12-19T04:56:20.824Z,15.43
2017-12-19T04:58:48.320Z,15.67
2017-12-19T05:01:15.768Z,14.90
2017-12-19T05:03:43.236Z,15.40
2017-12-19T05:06:10.700Z,14.30
2017-12-19T05:08:38.208Z,14.30
2017-12-19T05:11:06.104Z,15.43
2017-12-19T05:13:33.814Z,15.30
2017-12-19T05:16:01.651Z,16.50
2017-12-19T05:18:29.290Z,14.60
2017-12-19T05:20:57.164Z,16.27
2017-12-19T05:23:24.616Z,14.87
2017-12-19T05:25:52.083Z,14.47
2017-12-19T05:28:19.512Z,14.30
2017-12-19T05:30:47.329Z,14.33
2017-12-19T05:33:14.807Z,15.33
2017-12-19T05:35:42.587Z,14.63
2017-12-19T05:38:10.048Z,13.33
2017-12-19T05:40:37.541Z,14.57
2017-12-19T05:43:05.634Z,16.40
2017-12-19T05:45:33.495Z,16.10
2017-12-19T05:48:01.593Z,21.10
2017-12-19T05:50:29.233Z,21.07
2017-12-19T05:52:56.708Z,16.80
2017-12-19T05:55:25.020Z,14.53
2017-12-19T05:57:52.672Z,14.60
2017-12-19T06:00:20.130Z,15.17
2017-12-19T06:02:47.570Z,15.40
2017-12-19T06:05:16.290Z,14.37
2017-12-19T06:07:43.711Z,13.60
2017-12-19T06:10:11.551Z,13.77
2017-12-19T06:12:38.981Z,15.43
2017-12-19T06:15:06.394Z,15.17
2017-12-19T06:17:34.227Z,14.60
2017-12-19T06:20:01.680Z,16.80
2017-12-19T06:22:29.129Z,14.93
2017-12-19T06:24:56.569Z,16.20
2017-12-19T06:27:24.011Z,14.10
2017-12-19T06:29:51.943Z,15.47
2017-12-19T06:32:19.419Z,14.80
2017-12-19T06:34:46.844Z,14.20
2017-12-19T06:37:14.313Z,16.40
2017-12-19T06:39:41.827Z,16.67
2017-12-19T06:42:09.335Z,15.80
2017-12-19T06:44:36.755Z,16.13
2017-12-19T06:47:04.579Z,16.60
2017-12-19T06:49:32.001Z,15.07
2017-12-19T06:51:59.853Z,16.00
2017-12-19T06:54:27.358Z,14.97
2017-12-19T06:56:54.832Z,14.37
2017-12-19T06:59:22.324Z,14.67
2017-12-19T07:01:49.810Z,14.33
2017-12-19T07:04:17.717Z,12.07
2017-12-19T07:06:45.511Z,15.20
2017-12-19T07:09:12.951Z,14.60
2017-12-19T07:11:40.395Z,15.10
2017-12-19T07:14:07.889Z,12.80
2017-12-19T07:16:35.536Z,13.80
2017-12-19T07:19:03.347Z,12.80
2017-12-19T07:21:30.768Z,14.90
2017-12-19T07:23:58.362Z,15.13
2017-12-19T07:26:26.733Z,14.27
2017-12-19T07:28:54.793Z,14.93
2017-12-19T07:31:22.579Z,13.37
2017-12-19T07:33:50.923Z,12.90
2017-12-19T07:36:18.927Z,12.33
2017-12-19T07:38:46.484Z,12.60
2017-12-19T07:41:14.462Z,14.57
2017-12-19T07:43:42.541Z,13.00
2017-12-19T07:46:10.034Z,13.33
2017-12-19T07:48:37.745Z,12.40
2017-12-19T07:51:05.626Z,12.20
2017-12-19T07:53:33.100Z,14.73
2017-12-19T07:56:00.745Z,11.77
2017-12-19T07:58:29.141Z,12.67
2017-12-19T08:00:56.635Z,12.13
2017-12-19T08:03:24.109Z,13.30
2017-12-19T08:05:52.384Z,12.90
2017-12-19T08:08:20.153Z,12.43
2017-12-19T08:10:47.636Z,14.20
2017-12-19T08:13:15.142Z,14.67
2017-12-19T08:15:43.024Z,14.33
2017-12-19T08:18:10.773Z,15.23
2017-12-19T08:20:38.250Z,14.90
2017-12-19T08:23:06.196Z,14.70
2017-12-19T08:25:34.252Z,16.37
2017-12-19T08:28:02.572Z,16.10
2017-12-19T08:30:30.332Z,16.30
2017-12-19T08:32:58.047Z,15.07
2017-12-19T08:35:25.534Z,15.37
2017-12-19T08:37:53.067Z,14.93
2017-12-19T08:40:20.511Z,15.40
2017-12-19T08:42:47.992Z,15.93
2017-12-19T08:45:15.680Z,14.87
2017-12-19T08:47:43.128Z,13.83
2017-12-19T08:50:12.250Z,14.83
2017-12-19T08:52:40.106Z,14.87
2017-12-19T08:55:07.890Z,14.40
2017-12-19T08:57:35.346Z,15.00
2017-12-19T09:00:02.917Z,15.07
2017-12-19T09:02:30.408Z,12.80
2017-12-19T09:04:59.866Z,14.50
2017-12-19T09:07:27.396Z,14.17
2017-12-19T09:09:54.987Z,14.60
2017-12-19T09:12:22.580Z,14.40
2017-12-19T09:14:50.547Z,14.30
2017-12-19T09:17:18.010Z,12.83
2017-12-19T09:19:46.044Z,12.50
2017-12-19T09:22:13.607Z,13.33
2017-12-19T09:24:41.150Z,13.03
2017-12-19T09:27:09.123Z,13.73
2017-12-19T09:29:36.901Z,16.40
2017-12-19T09:32:04.384Z,16.70
2017-12-19T09:34:32.021Z,15.17
2017-12-19T09:37:00.658Z,14.70
2017-12-19T09:39:28.401Z,12.57
2017-12-19T09:41:56.035Z,15.83
2017-12-19T09:44:23.985Z,13.30
2017-12-19T09:46:51.929Z,12.80
2017-12-19T09:49:19.415Z,15.30
2017-12-19T09:51:46.871Z,13.70
2017-12-19T09:54:14.987Z,15.40
2017-12-19T09:56:42.657Z,13.40
2017-12-19T09:59:10.116Z,13.03
2017-12-19T10:01:37.783Z,13.27
2017-12-19T10:04:05.258Z,13.73
2017-12-19T10:06:32.776Z,13.33
2017-12-19T10:09:00.699Z,13.37
2017-12-19T10:11:28.225Z,14.43
2017-12-19T10:13:56.115Z,14.57
2017-12-19T10:16:23.593Z,14.83
2017-12-19T10:18:51.033Z,15.50
2017-12-19T10:21:18.680Z,13.53
2017-12-19T10:23:46.519Z,13.27
2017-12-19T10:26:13.988Z,13.27
2017-12-19T10:28:41.450Z,13.50
2017-12-19T10:31:08.909Z,13.70
2017-12-19T10:33:36.544Z,16.70
2017-12-19T10:36:04.260Z,14.37
2017-12-19T10:38:31.845Z,14.43
2017-12-19T10:40:59.408Z,12.87
2017-12-19T10:43:27.394Z,13.00
2017-12-19T10:45:54.828Z,13.57
2017-12-19T10:48:22.725Z,12.20
2017-12-19T10:50:50.188Z,13.80
2017-12-19T10:53:17.790Z,12.80
2017-12-19T10:55:45.929Z,13.93
2017-12-19T10:58:14.270Z,11.33
2017-12-19T11:00:42.508Z,13.20
2017-12-19T11:03:09.970Z,13.30
2017-12-19T11:05:37.426Z,11.60
2017-12-19T11:08:04.909Z,11.23
2017-12-19T11:10:32.424Z,11.50
2017-12-19T11:12:59.912Z,11.97
2017-12-19T11:15:27.432Z,11.20
2017-12-19T11:17:55.379Z,12.33
2017-12-19T11:20:22.825Z,11.37
2017-12-19T11:22:50.288Z,12.00
2017-12-19T11:25:17.732Z,13.23
2017-12-19T11:27:45.187Z,10.90
2017-12-19T11:30:12.994Z,11.83
2017-12-19T11:32:40.652Z,12.67
2017-12-19T11:35:08.205Z,11.00
2017-12-19T11:37:35.652Z,11.90
2017-12-19T11:40:04.831Z,11.03
2017-12-19T11:42:32.443Z,11.40
2017-12-19T11:45:00.253Z,12.80
2017-12-19T11:47:28.164Z,11.20
2017-12-19T11:49:55.752Z,11.27
2017-12-19T11:52:23.290Z,11.10
2017-12-19T11:54:50.776Z,11.87
2017-12-19T11:57:18.681Z,10.73
2017-12-19T11:59:46.386Z,11.00
2017-12-19T12:02:14.668Z,13.33
2017-12-19T12:04:43.372Z,11.63
2017-12-19T12:07:11.019Z,11.67
2017-12-19T12:09:38.586Z,11.10
2017-12-19T12:12:06.515Z,11.70
2017-12-19T12:14:33.964Z,12.60
2017-12-19T12:17:01.444Z,12.40
2017-12-19T12:19:29.371Z,13.73
2017-12-19T12:21:57.043Z,13.43
2017-12-19T12:24:24.593Z,13.63
2017-12-19T12:26:52.096Z,13.00
2017-12-19T12:29:19.833Z,14.27
2017-12-19T12:31:47.341Z,12.20
2017-12-19T12:34:15.070Z,11.40
2017-12-19T12:36:42.548Z,12.97
2017-12-19T12:39:10.138Z,13.80
2017-12-19T12:41:37.628Z,11.67
2017-12-19T12:44:05.479Z,12.90
2017-12-19T12:46:33.514Z,12.17
2017-12-19T12:49:01.283Z,12.70
2017-12-19T12:51:28.866Z,12.10
2017-12-19T12:53:56.799Z,11.40
2017-12-19T12:56:24.332Z,11.90
2017-12-19T12:58:52.448Z,12.23
2017-12-19T13:01:22.638Z,11.37
2017-12-19T13:03:50.727Z,9.87
2017-12-19T13:06:18.216Z,11.00
2017-12-19T13:08:45.731Z,10.33
2017-12-19T13:11:13.220Z,11.73
2017-12-19T13:13:40.824Z,11.97
2017-12-19T13:16:08.460Z,11.57
2017-12-19T13:18:35.893Z,10.70
2017-12-19T13:21:03.496Z,11.60
2017-12-19T13:23:31.051Z,13.83
2017-12-19T13:25:58.656Z,14.73
2017-12-19T13:28:26.271Z,12.50
2017-12-19T13:30:53.952Z,12.90
2017-12-19T13:33:21.419Z,11.77
2017-12-19T13:35:48.835Z,13.23
2017-12-19T13:38:16.352Z,12.83
2017-12-19T13:40:43.824Z,13.57
2017-12-19T13:43:11.263Z,12.03
2017-12-19T13:45:38.779Z,13.17
2017-12-19T13:48:06.388Z,12.37
2017-12-19T13:50:33.844Z,11.80
2017-12-19T13:53:01.544Z,12.70
2017-12-19T13:55:29.033Z,11.73
2017-12-19T13:57:56.864Z,12.93
2017-12-19T14:00:25.595Z,13.00
2017-12-19T14:02:53.515Z,13.47
2017-12-19T14:05:20.956Z,13.47
2017-12-19T14:07:48.424Z,12.50
2017-12-19T14:10:15.982Z,12.73
2017-12-19T14:12:43.511Z,12.23
2017-12-19T14:15:11.067Z,13.50
2017-12-19T14:17:38.601Z,14.30
2017-12-19T14:20:06.146Z,12.47
2017-12-19T14:22:33.655Z,13.37
2017-12-19T14:25:01.286Z,14.13
2017-12-19T14:27:28.748Z,13.73
2017-12-19T14:29:56.263Z,14.50
2017-12-19T14:32:24.100Z,13.33
2017-12-19T14:34:53.483Z,14.60
2017-12-19T14:37:20.958Z,11.83
2017-12-19T14:39:48.507Z,12.97
2017-12-19T14:42:15.956Z,13.03
2017-12-19T14:44:43.393Z,13.30
2017-12-19T14:47:11.236Z,14.43
2017-12-19T14:49:38.678Z,14.07
2017-12-19T14:52:06.146Z,13.97
2017-12-19T14:54:33.577Z,14.10
2017-12-19T14:57:01.039Z,13.47
2017-12-19T14:59:28.487Z,13.83
2017-12-19T15:01:57.235Z,12.70
2017-12-19T15:04:25.147Z,15.33
2017-12-19T15:06:52.575Z,14.67
2017-12-19T15:09:20.508Z,16.90
2017-12-19T15:11:47.983Z,13.90
2017-12-19T15:14:15.405Z,12.87
2017-12-19T15:16:42.874Z,15.37
2017-12-19T15:19:10.354Z,14.97
2017-12-19T15:21:37.830Z,14.00
2017-12-19T15:24:05.283Z,12.47
2017-12-19T15:26:33.031Z,13.40
2017-12-19T15:29:00.739Z,13.70
2017-12-19T15:31:28.181Z,13.53
2017-12-19T15:33:55.681Z,13.03
2017-12-19T15:36:23.291Z,13.00
2017-12-19T15:38:51.463Z,13.97
2017-12-19T15:41:18.887Z,13.37
2017-12-19T15:43:46.833Z,12.33
2017-12-19T15:46:14.379Z,11.80
2017-12-19T15:48:41.929Z,11.90
2017-12-19T15:51:09.548Z,11.40
2017-12-19T15:53:37.274Z,11.43
2017-12-19T15:56:04.940Z,13.57
2017-12-19T15:58:32.456Z,11.17
2017-12-19T16:01:00.714Z,13.23
2017-12-19T16:03:28.150Z,12.90
2017-12-19T16:05:55.591Z,13.17
2017-12-19T16:08:23.031Z,13.20
2017-12-19T16:10:50.545Z,14.23
2017-12-19T16:13:18.005Z,12.00
2017-12-19T16:15:45.455Z,14.67
2017-12-19T16:18:13.003Z,13.70
2017-12-19T16:20:40.475Z,13.33
2017-12-19T16:23:08.016Z,12.53
2017-12-19T16:25:35.494Z,11.60
2017-12-19T16:28:02.979Z,12.03
2017-12-19T16:30:30.434Z,12.37
2017-12-19T16:32:57.896Z,12.93
2017-12-19T16:35:25.382Z,12.37
2017-12-19T16:37:52.829Z,11.40
2017-12-19T16:40:20.278Z,12.60
2017-12-19T16:42:47.836Z,12.10
2017-12-19T16:45:15.273Z,12.23
2017-12-19T16:47:42.842Z,12.50
2017-12-19T16:50:10.682Z,13.43
2017-12-19T16:52:38.204Z,13.00
2017-12-19T16:55:05.744Z,12.20
2017-12-19T16:57:33.207Z,12.60
2017-12-19T17:00:00.671Z,13.53
2017-12-19T17:02:28.102Z,12.63
2017-12-19T17:04:55.540Z,13.87
2017-12-19T17:07:23.092Z,13.40
2017-12-19T17:09:50.741Z,12.33
2017-12-19T17:12:18.237Z,15.60
2017-12-19T17:14:46.134Z,14.53
2017-12-19T17:17:13.604Z,14.40
2017-12-19T17:19:42.294Z,15.07
2017-12-19T17:22:10.213Z,15.23
2017-12-19T17:24:37.703Z,17.77
2017-12-19T17:27:05.743Z,20.60
2017-12-19T17:29:33.219Z,15.70
2017-12-19T17:32:00.678Z,16.07
2017-12-19T17:34:28.192Z,13.90
2017-12-19T17:36:55.911Z,14.63
2017-12-19T17:39:23.381Z,14.60
2017-12-19T17:41:51.075Z,13.27
2017-12-19T17:44:18.968Z,14.40
2017-12-19T17:46:46.501Z,13.47
2017-12-19T17:49:14.462Z,14.13
2017-12-19T17:51:44.284Z,12.80
2017-12-19T17:54:12.281Z,13.87
2017-12-19T17:56:40.141Z,14.50
2017-12-19T17:59:08.014Z,12.23
2017-12-19T18:01:35.902Z,14.07
2017-12-19T18:04:03.383Z,11.70
2017-12-19T18:06:30.848Z,12.93
2017-12-19T18:08:58.401Z,15.50
2017-12-19T18:11:25.892Z,14.57
2017-12-19T18:13:53.418Z,15.73
2017-12-19T18:16:20.921Z,13.63
2017-12-19T18:18:48.593Z,14.77
2017-12-19T18:21:16.076Z,13.70
2017-12-19T18:23:43.676Z,12.93
2017-12-19T18:26:11.167Z,12.30
2017-12-19T18:28:38.646Z,15.00
2017-12-19T18:31:06.219Z,13.53
2017-12-19T18:33:33.704Z,13.20
2017-12-19T18:36:01.581Z,14.07
2017-12-19T18:38:29.447Z,13.40
2017-12-19T18:40:56.904Z,13.53
2017-12-19T18:43:24.783Z,13.00
2017-12-19T18:45:52.607Z,13.50
2017-12-19T18:48:20.076Z,14.57
2017-12-19T18:50:47.568Z,13.10
2017-12-19T18:53:15.436Z,12.93
2017-12-19T18:55:43.407Z,13.93
2017-12-19T18:58:11.242Z,12.40
2017-12-19T19:00:38.796Z,12.27
2017-12-19T19:03:06.244Z,12.17
2017-12-19T19:05:33.740Z,12.73
2017-12-19T19:08:01.217Z,12.60
2017-12-19T19:10:28.679Z,11.73
2017-12-19T19:12:56.131Z,13.97
2017-12-19T19:15:23.705Z,14.00
2017-12-19T19:17:51.311Z,15.13
2017-12-19T19:20:18.758Z,13.90
2017-12-19T19:22:46.638Z,11.60
2017-12-19T19:25:14.098Z,11.73
2017-12-19T19:27:41.595Z,12.43
2017-12-19T19:30:09.357Z,12.00
2017-12-19T19:32:37.734Z,11.63
2017-12-19T19:35:05.239Z,10.27
2017-12-19T19:37:32.803Z,11.63
2017-12-19T19:40:00.302Z,13.47
2017-12-19T19:42:27.817Z,12.63
2017-12-19T19:44:55.677Z,12.10
2017-12-19T19:47:23.247Z,12.50
2017-12-19T19:49:50.719Z,11.00
2017-12-19T19:52:18.269Z,11.30
2017-12-19T19:54:45.727Z,10.50
2017-12-19T19:57:13.178Z,11.83
2017-12-19T19:59:40.646Z,11.07
2017-12-19T20:02:08.122Z,11.17
2017-12-19T20:04:35.571Z,9.93
2017-12-19T20:07:03.535Z,11.30
2017-12-19T20:09:30.976Z,12.20
2017-12-19T20:11:58.427Z,12.63
2017-12-19T20:14:25.894Z,12.40
2017-12-19T20:16:53.781Z,12.27
2017-12-19T20:19:21.228Z,11.33
2017-12-19T20:21:48.716Z,10.67
2017-12-19T20:24:16.154Z,12.23
2017-12-19T20:26:43.585Z,13.70
2017-12-19T20:29:12.113Z,13.57
2017-12-19T20:31:39.546Z,13.30
2017-12-19T20:34:07.083Z,12.93
2017-12-19T20:36:34.519Z,12.83
2017-12-19T20:39:01.974Z,13.17
2017-12-19T20:41:29.416Z,13.23
2017-12-19T20:43:56.862Z,12.50
2017-12-19T20:46:24.314Z,13.37
2017-12-19T20:48:52.146Z,12.70
2017-12-19T20:51:19.581Z,13.57
2017-12-19T20:53:47.060Z,12.87
2017-12-19T20:56:14.499Z,15.40
2017-12-19T20:58:41.936Z,16.23
2017-12-19T21:01:09.387Z,15.97
2017-12-19T21:03:37.224Z,16.20
2017-12-19T21:06:04.763Z,14.93
2017-12-19T21:08:32.231Z,14.67
2017-12-19T21:10:59.667Z,16.23
2017-12-19T21:26:32.183Z,16.07
2017-12-19T21:28:59.704Z,14.53
2017-12-19T21:31:27.179Z,15.13
2017-12-19T21:33:55.674Z,15.20
2017-12-19T21:36:23.114Z,13.20
2017-12-19T21:38:50.598Z,14.57
2017-12-19T21:41:18.066Z,13.37
2017-12-19T21:43:45.633Z,14.37
2017-12-19T21:46:14.820Z,13.83
2017-12-19T21:48:42.369Z,15.43
2017-12-19T21:51:09.833Z,13.90
2017-12-19T21:53:37.268Z,13.30
2017-12-19T21:56:04.744Z,14.27
2017-12-19T21:58:32.218Z,14.80
2017-12-19T22:00:59.676Z,13.50
2017-12-19T22:03:27.173Z,12.00
2017-12-19T22:05:54.592Z,12.63
2017-12-19T22:08:22.275Z,11.30
2017-12-19T22:10:49.797Z,12.20
2017-12-19T22:13:17.700Z,13.83
2017-12-19T22:15:46.097Z,13.07
2017-12-19T22:18:13.573Z,11.00
2017-12-19T22:20:41.119Z,10.70
2017-12-19T22:23:08.580Z,12.80
2017-12-19T22:25:36.128Z,12.20
2017-12-19T22:28:03.591Z,12.40
2017-12-19T22:30:31.082Z,11.53
2017-12-19T22:32:58.557Z,10.23
2017-12-19T22:35:26.113Z,13.07
2017-12-19T22:37:53.583Z,10.80
2017-12-19T22:40:21.038Z,11.67
2017-12-19T22:42:48.589Z,12.43
2017-12-19T22:45:16.454Z,13.20
2017-12-19T22:47:43.924Z,12.00
2017-12-19T22:50:11.430Z,12.03
2017-12-19T22:52:39.342Z,11.37
2017-12-19T22:55:06.809Z,11.43
2017-12-19T22:57:34.253Z,12.20
2017-12-19T23:00:01.695Z,10.47
2017-12-19T23:02:29.542Z,9.87
2017-12-19T23:04:56.966Z,11.20
2017-12-19T23:07:24.412Z,10.93
2017-12-19T23:09:51.886Z,12.10
2017-12-19T23:12:19.352Z,12.30
2017-12-19T23:14:46.784Z,12.10
2017-12-19T23:17:14.258Z,11.27
2017-12-19T23:19:41.683Z,11.47
2017-12-19T23:22:09.622Z,10.43
2017-12-19T23:24:37.076Z,13.70
2017-12-19T23:27:04.620Z,11.67
2017-12-19T23:29:32.045Z,12.00
2017-12-19T23:31:59.876Z,11.40
2017-12-19T23:34:27.417Z,12.10
2017-12-19T23:36:54.870Z,11.47
2017-12-19T23:39:22.345Z,12.43
2017-12-19T23:41:49.792Z,11.37
2017-12-19T23:44:17.249Z,12.23
2017-12-19T23:46:44.712Z,10.83
2017-12-19T23:49:12.181Z,13.23
2017-12-19T23:51:39.583Z,12.73
2017-12-19T23:54:07.030Z,12.70
2017-12-19T23:56:34.458Z,13.03
2017-12-19T23:59:01.891Z,13.37
